Graford, Texas
Current Conditions -  °F | °C
As of 1:53 PM on Wednesday 28 Jan 2015 (Local Time) from KMWL Reporting Station
Clear Clear  
Wind Chill: 78°   Ceiling: Unl
Heat Index: 78°   Visibility: 10mi
Dew Point: 39°   Wind: 15mph
Humidity: 25%   Direction: 200°SSW
Pressure: 29.99"   Gusts: NA
Location:  32.94°N, 98.25°W
Report Text: KMWL 281953Z AUTO 20013KT 10SM CLR 26/04 A2999 RMK AO2 SLP148 T02560039
Loading
Personal Weather Stations






























Interactive Weather Map New forecast layout! Learn more

10-Day Weather Forecast

Advertisements
Track Severe Weather on mobile